sensor_id;sensor_type;location;lat;lon;timestamp;P1;durP1;ratioP1;P2;durP2;ratioP2
23496;SDS011;11925;48.122;11.560;2023-02-15T00:00:07;19.15;;;12.48;;
23496;SDS011;11925;48.122;11.560;2023-02-15T00:02:37;20.73;;;12.93;;
23496;SDS011;11925;48.122;11.560;2023-02-15T00:05:07;19.08;;;12.50;;
23496;SDS011;11925;48.122;11.560;2023-02-15T00:07:35;16.92;;;11.45;;
23496;SDS011;11925;48.122;11.560;2023-02-15T00:10:06;17.20;;;11.50;;
23496;SDS011;11925;48.122;11.560;2023-02-15T00:12:35;16.75;;;11.88;;
23496;SDS011;11925;48.122;11.560;2023-02-15T00:15:03;15.48;;;11.10;;
23496;SDS011;11925;48.122;11.560;2023-02-15T00:17:31;15.65;;;10.38;;
23496;SDS011;11925;48.122;11.560;2023-02-15T00:20:00;16.65;;;11.02;;
23496;SDS011;11925;48.122;11.560;2023-02-15T00:22:28;15.60;;;10.55;;
23496;SDS011;11925;48.122;11.560;2023-02-15T00:24:56;15.10;;;10.65;;
23496;SDS011;11925;48.122;11.560;2023-02-15T00:27:26;15.07;;;10.07;;
23496;SDS011;11925;48.122;11.560;2023-02-15T00:29:54;18.45;;;10.38;;
23496;SDS011;11925;48.122;11.560;2023-02-15T00:32:22;14.55;;;10.32;;
23496;SDS011;11925;48.122;11.560;2023-02-15T00:34:51;12.68;;;9.23;;
23496;SDS011;11925;48.122;11.560;2023-02-15T00:37:19;14.18;;;10.18;;
23496;SDS011;11925;48.122;11.560;2023-02-15T00:39:47;14.35;;;9.73;;
23496;SDS011;11925;48.122;11.560;2023-02-15T00:42:16;12.77;;;9.95;;
23496;SDS011;11925;48.122;11.560;2023-02-15T00:44:45;13.85;;;9.63;;
23496;SDS011;11925;48.122;11.560;2023-02-15T00:47:14;12.45;;;9.23;;
23496;SDS011;11925;48.122;11.560;2023-02-15T00:49:42;14.20;;;9.13;;
23496;SDS011;11925;48.122;11.560;2023-02-15T00:52:11;13.20;;;9.43;;
23496;SDS011;11925;48.122;11.560;2023-02-15T00:54:39;14.02;;;9.07;;
23496;SDS011;11925;48.122;11.560;2023-02-15T00:57:07;12.52;;;9.27;;
23496;SDS011;11925;48.122;11.560;2023-02-15T00:59:36;12.80;;;9.45;;
23496;SDS011;11925;48.122;11.560;2023-02-15T01:02:05;12.65;;;9.18;;
23496;SDS011;11925;48.122;11.560;2023-02-15T01:04:34;12.15;;;9.13;;
23496;SDS011;11925;48.122;11.560;2023-02-15T01:07:02;13.35;;;9.23;;
23496;SDS011;11925;48.122;11.560;2023-02-15T01:09:32;13.05;;;9.50;;
23496;SDS011;11925;48.122;11.560;2023-02-15T01:12:02;14.35;;;9.65;;
23496;SDS011;11925;48.122;11.560;2023-02-15T01:14:30;13.82;;;8.90;;
23496;SDS011;11925;48.122;11.560;2023-02-15T01:16:58;13.05;;;9.43;;
23496;SDS011;11925;48.122;11.560;2023-02-15T01:19:28;13.57;;;9.35;;
23496;SDS011;11925;48.122;11.560;2023-02-15T01:21:58;12.55;;;9.68;;
23496;SDS011;11925;48.122;11.560;2023-02-15T01:24:26;13.15;;;9.02;;
23496;SDS011;11925;48.122;11.560;2023-02-15T01:26:55;13.75;;;9.30;;
23496;SDS011;11925;48.122;11.560;2023-02-15T01:29:25;14.03;;;10.13;;
23496;SDS011;11925;48.122;11.560;2023-02-15T01:31:53;13.55;;;9.48;;
23496;SDS011;11925;48.122;11.560;2023-02-15T01:34:22;13.88;;;8.75;;
23496;SDS011;11925;48.122;11.560;2023-02-15T01:36:51;12.43;;;9.45;;
23496;SDS011;11925;48.122;11.560;2023-02-15T01:39:20;12.13;;;8.23;;
23496;SDS011;11925;48.122;11.560;2023-02-15T01:41:50;12.10;;;8.88;;
23496;SDS011;11925;48.122;11.560;2023-02-15T01:47:16;11.48;;;8.70;;
23496;SDS011;11925;48.122;11.560;2023-02-15T01:49:49;10.82;;;8.20;;
23496;SDS011;11925;48.122;11.560;2023-02-15T01:52:26;9.80;;;7.55;;
23496;SDS011;11925;48.122;11.560;2023-02-15T01:54:55;11.03;;;7.97;;
23496;SDS011;11925;48.122;11.560;2023-02-15T01:57:25;11.52;;;7.88;;
23496;SDS011;11925;48.122;11.560;2023-02-15T01:59:56;11.95;;;7.93;;
23496;SDS011;11925;48.122;11.560;2023-02-15T02:02:38;10.85;;;7.53;;
23496;SDS011;11925;48.122;11.560;2023-02-15T02:05:07;9.98;;;7.50;;
23496;SDS011;11925;48.122;11.560;2023-02-15T02:07:37;10.23;;;7.72;;
23496;SDS011;11925;48.122;11.560;2023-02-15T02:10:09;9.25;;;7.30;;
23496;SDS011;11925;48.122;11.560;2023-02-15T02:12:41;9.05;;;6.90;;
23496;SDS011;11925;48.122;11.560;2023-02-15T02:15:12;9.45;;;7.25;;
23496;SDS011;11925;48.122;11.560;2023-02-15T02:17:43;9.40;;;7.40;;
23496;SDS011;11925;48.122;11.560;2023-02-15T02:20:43;9.07;;;7.30;;
23496;SDS011;11925;48.122;11.560;2023-02-15T02:26:41;10.30;;;7.13;;
23496;SDS011;11925;48.122;11.560;2023-02-15T02:29:32;9.48;;;7.20;;
23496;SDS011;11925;48.122;11.560;2023-02-15T02:35:37;9.20;;;7.03;;
23496;SDS011;11925;48.122;11.560;2023-02-15T02:38:15;8.88;;;6.85;;
23496;SDS011;11925;48.122;11.560;2023-02-15T02:40:52;9.30;;;7.05;;
23496;SDS011;11925;48.122;11.560;2023-02-15T02:43:29;8.48;;;6.63;;
23496;SDS011;11925;48.122;11.560;2023-02-15T02:46:02;9.77;;;7.20;;
23496;SDS011;11925;48.122;11.560;2023-02-15T02:48:39;8.90;;;7.15;;
23496;SDS011;11925;48.122;11.560;2023-02-15T02:51:07;9.52;;;7.47;;
23496;SDS011;11925;48.122;11.560;2023-02-15T02:53:35;8.25;;;6.80;;
23496;SDS011;11925;48.122;11.560;2023-02-15T02:56:05;8.68;;;7.00;;
23496;SDS011;11925;48.122;11.560;2023-02-15T02:58:39;10.25;;;7.50;;
23496;SDS011;11925;48.122;11.560;2023-02-15T03:01:13;8.70;;;7.07;;
23496;SDS011;11925;48.122;11.560;2023-02-15T03:03:48;9.75;;;7.43;;
23496;SDS011;11925;48.122;11.560;2023-02-15T03:06:27;8.50;;;7.45;;
23496;SDS011;11925;48.122;11.560;2023-02-15T03:09:01;11.07;;;7.82;;
23496;SDS011;11925;48.122;11.560;2023-02-15T03:11:34;9.00;;;7.07;;
23496;SDS011;11925;48.122;11.560;2023-02-15T03:14:02;10.23;;;7.45;;
23496;SDS011;11925;48.122;11.560;2023-02-15T03:16:31;9.65;;;7.60;;
23496;SDS011;11925;48.122;11.560;2023-02-15T03:19:03;10.32;;;7.50;;
23496;SDS011;11925;48.122;11.560;2023-02-15T03:21:36;11.55;;;8.05;;
23496;SDS011;11925;48.122;11.560;2023-02-15T03:24:09;10.13;;;7.53;;
23496;SDS011;11925;48.122;11.560;2023-02-15T03:26:43;10.77;;;7.35;;
23496;SDS011;11925;48.122;11.560;2023-02-15T03:29:15;9.98;;;7.72;;
23496;SDS011;11925;48.122;11.560;2023-02-15T03:31:50;10.35;;;8.07;;
23496;SDS011;11925;48.122;11.560;2023-02-15T03:34:24;10.68;;;7.43;;
23496;SDS011;11925;48.122;11.560;2023-02-15T03:36:55;10.35;;;7.40;;
23496;SDS011;11925;48.122;11.560;2023-02-15T03:39:30;9.98;;;7.80;;
23496;SDS011;11925;48.122;11.560;2023-02-15T03:42:04;10.15;;;7.38;;
23496;SDS011;11925;48.122;11.560;2023-02-15T03:44:40;10.38;;;7.75;;
23496;SDS011;11925;48.122;11.560;2023-02-15T03:47:15;10.50;;;7.68;;
23496;SDS011;11925;48.122;11.560;2023-02-15T03:49:47;10.75;;;7.50;;
23496;SDS011;11925;48.122;11.560;2023-02-15T03:52:19;9.40;;;7.53;;
23496;SDS011;11925;48.122;11.560;2023-02-15T03:54:50;10.15;;;7.88;;
23496;SDS011;11925;48.122;11.560;2023-02-15T03:57:20;9.70;;;7.35;;
23496;SDS011;11925;48.122;11.560;2023-02-15T04:00:11;10.52;;;7.70;;
23496;SDS011;11925;48.122;11.560;2023-02-15T04:03:03;13.02;;;7.90;;
23496;SDS011;11925;48.122;11.560;2023-02-15T04:05:40;10.25;;;7.70;;
23496;SDS011;11925;48.122;11.560;2023-02-15T04:08:09;10.52;;;7.60;;
23496;SDS011;11925;48.122;11.560;2023-02-15T04:10:38;10.05;;;7.53;;
23496;SDS011;11925;48.122;11.560;2023-02-15T04:13:29;9.75;;;7.20;;
23496;SDS011;11925;48.122;11.560;2023-02-15T04:15:59;9.57;;;7.45;;
23496;SDS011;11925;48.122;11.560;2023-02-15T04:18:36;11.40;;;7.88;;
23496;SDS011;11925;48.122;11.560;2023-02-15T04:21:25;10.07;;;7.15;;
23496;SDS011;11925;48.122;11.560;2023-02-15T04:24:12;10.30;;;7.30;;
23496;SDS011;11925;48.122;11.560;2023-02-15T04:26:59;10.10;;;7.63;;
23496;SDS011;11925;48.122;11.560;2023-02-15T04:29:28;10.20;;;7.78;;
23496;SDS011;11925;48.122;11.560;2023-02-15T04:31:58;10.45;;;7.68;;
23496;SDS011;11925;48.122;11.560;2023-02-15T04:34:27;10.15;;;7.28;;
23496;SDS011;11925;48.122;11.560;2023-02-15T04:36:57;10.10;;;7.40;;
23496;SDS011;11925;48.122;11.560;2023-02-15T04:39:25;9.88;;;7.55;;
23496;SDS011;11925;48.122;11.560;2023-02-15T04:41:53;10.18;;;7.88;;
23496;SDS011;11925;48.122;11.560;2023-02-15T04:44:21;10.65;;;8.13;;
23496;SDS011;11925;48.122;11.560;2023-02-15T04:46:50;10.13;;;7.78;;
23496;SDS011;11925;48.122;11.560;2023-02-15T04:49:18;9.18;;;7.05;;
23496;SDS011;11925;48.122;11.560;2023-02-15T04:51:46;11.10;;;7.63;;
23496;SDS011;11925;48.122;11.560;2023-02-15T04:54:16;9.68;;;7.85;;
23496;SDS011;11925;48.122;11.560;2023-02-15T04:56:44;10.32;;;7.80;;
23496;SDS011;11925;48.122;11.560;2023-02-15T04:59:12;12.45;;;8.55;;
23496;SDS011;11925;48.122;11.560;2023-02-15T05:01:41;11.43;;;7.72;;
23496;SDS011;11925;48.122;11.560;2023-02-15T05:04:09;12.45;;;8.32;;
23496;SDS011;11925;48.122;11.560;2023-02-15T05:06:38;12.18;;;7.88;;
23496;SDS011;11925;48.122;11.560;2023-02-15T05:09:06;11.98;;;7.53;;
23496;SDS011;11925;48.122;11.560;2023-02-15T05:11:35;12.68;;;8.32;;
23496;SDS011;11925;48.122;11.560;2023-02-15T05:14:04;12.00;;;8.27;;
23496;SDS011;11925;48.122;11.560;2023-02-15T05:16:32;10.60;;;7.72;;
23496;SDS011;11925;48.122;11.560;2023-02-15T05:19:01;12.02;;;8.38;;
23496;SDS011;11925;48.122;11.560;2023-02-15T05:21:29;11.05;;;7.82;;
23496;SDS011;11925;48.122;11.560;2023-02-15T05:23:58;10.13;;;7.68;;
23496;SDS011;11925;48.122;11.560;2023-02-15T05:26:26;11.40;;;8.07;;
23496;SDS011;11925;48.122;11.560;2023-02-15T05:29:13;12.18;;;8.55;;
23496;SDS011;11925;48.122;11.560;2023-02-15T05:31:42;12.25;;;8.23;;
23496;SDS011;11925;48.122;11.560;2023-02-15T05:34:13;11.50;;;8.02;;
23496;SDS011;11925;48.122;11.560;2023-02-15T05:36:58;11.80;;;8.27;;
23496;SDS011;11925;48.122;11.560;2023-02-15T05:39:27;12.18;;;7.82;;
23496;SDS011;11925;48.122;11.560;2023-02-15T05:41:57;10.02;;;7.47;;
23496;SDS011;11925;48.122;11.560;2023-02-15T05:44:27;11.00;;;8.40;;
23496;SDS011;11925;48.122;11.560;2023-02-15T05:46:55;10.68;;;8.38;;
23496;SDS011;11925;48.122;11.560;2023-02-15T05:49:24;11.15;;;8.52;;
23496;SDS011;11925;48.122;11.560;2023-02-15T05:51:52;10.88;;;8.02;;
23496;SDS011;11925;48.122;11.560;2023-02-15T05:54:20;10.45;;;8.35;;
23496;SDS011;11925;48.122;11.560;2023-02-15T05:56:49;10.38;;;7.82;;
23496;SDS011;11925;48.122;11.560;2023-02-15T05:59:17;11.70;;;8.65;;
23496;SDS011;11925;48.122;11.560;2023-02-15T06:01:46;11.55;;;8.30;;
23496;SDS011;11925;48.122;11.560;2023-02-15T06:04:15;12.00;;;8.60;;
23496;SDS011;11925;48.122;11.560;2023-02-15T06:06:43;15.23;;;9.05;;
23496;SDS011;11925;48.122;11.560;2023-02-15T06:09:11;13.95;;;8.60;;
23496;SDS011;11925;48.122;11.560;2023-02-15T06:11:40;12.75;;;9.48;;
23496;SDS011;11925;48.122;11.560;2023-02-15T06:14:08;11.65;;;8.68;;
23496;SDS011;11925;48.122;11.560;2023-02-15T06:16:36;11.93;;;8.77;;
23496;SDS011;11925;48.122;11.560;2023-02-15T06:19:06;13.30;;;9.20;;
23496;SDS011;11925;48.122;11.560;2023-02-15T06:21:34;12.00;;;8.50;;
23496;SDS011;11925;48.122;11.560;2023-02-15T06:24:03;14.35;;;8.70;;
23496;SDS011;11925;48.122;11.560;2023-02-15T06:26:31;14.15;;;8.10;;
23496;SDS011;11925;48.122;11.560;2023-02-15T06:29:00;12.88;;;8.63;;
23496;SDS011;11925;48.122;11.560;2023-02-15T06:31:28;13.73;;;8.43;;
23496;SDS011;11925;48.122;11.560;2023-02-15T06:33:57;10.23;;;7.82;;
23496;SDS011;11925;48.122;11.560;2023-02-15T06:36:29;13.40;;;8.00;;
23496;SDS011;11925;48.122;11.560;2023-02-15T06:38:58;12.30;;;8.50;;
23496;SDS011;11925;48.122;11.560;2023-02-15T06:41:26;12.52;;;8.27;;
23496;SDS011;11925;48.122;11.560;2023-02-15T06:43:54;11.20;;;8.20;;
23496;SDS011;11925;48.122;11.560;2023-02-15T06:46:22;11.52;;;8.02;;
23496;SDS011;11925;48.122;11.560;2023-02-15T06:48:51;11.65;;;8.07;;
23496;SDS011;11925;48.122;11.560;2023-02-15T06:51:19;11.70;;;8.23;;
23496;SDS011;11925;48.122;11.560;2023-02-15T06:53:49;11.55;;;8.15;;
23496;SDS011;11925;48.122;11.560;2023-02-15T06:56:17;14.40;;;8.98;;
23496;SDS011;11925;48.122;11.560;2023-02-15T06:58:45;11.05;;;8.02;;
23496;SDS011;11925;48.122;11.560;2023-02-15T07:01:15;11.82;;;8.27;;
23496;SDS011;11925;48.122;11.560;2023-02-15T07:03:44;12.52;;;8.00;;
23496;SDS011;11925;48.122;11.560;2023-02-15T07:06:12;10.90;;;8.10;;
23496;SDS011;11925;48.122;11.560;2023-02-15T07:08:40;12.32;;;8.60;;
23496;SDS011;11925;48.122;11.560;2023-02-15T07:11:10;11.60;;;8.80;;
23496;SDS011;11925;48.122;11.560;2023-02-15T07:13:56;12.45;;;8.82;;
23496;SDS011;11925;48.122;11.560;2023-02-15T07:16:24;12.10;;;9.38;;
23496;SDS011;11925;48.122;11.560;2023-02-15T07:18:52;12.43;;;8.90;;
23496;SDS011;11925;48.122;11.560;2023-02-15T07:21:20;11.48;;;8.15;;
23496;SDS011;11925;48.122;11.560;2023-02-15T07:23:49;12.75;;;9.27;;
23496;SDS011;11925;48.122;11.560;2023-02-15T07:26:18;13.02;;;9.10;;
23496;SDS011;11925;48.122;11.560;2023-02-15T07:28:46;11.60;;;8.13;;
23496;SDS011;11925;48.122;11.560;2023-02-15T07:31:15;11.98;;;8.70;;
23496;SDS011;11925;48.122;11.560;2023-02-15T07:33:43;12.65;;;8.65;;
23496;SDS011;11925;48.122;11.560;2023-02-15T07:36:11;14.18;;;8.85;;
23496;SDS011;11925;48.122;11.560;2023-02-15T07:38:40;13.45;;;9.07;;
23496;SDS011;11925;48.122;11.560;2023-02-15T07:41:11;13.02;;;9.30;;
23496;SDS011;11925;48.122;11.560;2023-02-15T07:43:43;11.70;;;9.18;;
23496;SDS011;11925;48.122;11.560;2023-02-15T07:46:13;13.52;;;9.93;;
23496;SDS011;11925;48.122;11.560;2023-02-15T07:48:43;13.57;;;9.90;;
23496;SDS011;11925;48.122;11.560;2023-02-15T07:51:12;14.75;;;9.43;;
23496;SDS011;11925;48.122;11.560;2023-02-15T07:53:42;12.88;;;9.73;;
23496;SDS011;11925;48.122;11.560;2023-02-15T07:56:11;13.18;;;9.77;;
23496;SDS011;11925;48.122;11.560;2023-02-15T07:58:40;14.30;;;10.15;;
23496;SDS011;11925;48.122;11.560;2023-02-15T08:01:20;14.75;;;10.57;;
23496;SDS011;11925;48.122;11.560;2023-02-15T08:03:51;14.60;;;9.90;;
23496;SDS011;11925;48.122;11.560;2023-02-15T08:06:21;15.95;;;10.18;;
23496;SDS011;11925;48.122;11.560;2023-02-15T08:08:50;13.15;;;9.50;;
23496;SDS011;11925;48.122;11.560;2023-02-15T08:11:19;15.23;;;10.43;;
23496;SDS011;11925;48.122;11.560;2023-02-15T08:14:00;14.80;;;9.63;;
23496;SDS011;11925;48.122;11.560;2023-02-15T08:16:32;13.93;;;9.95;;
23496;SDS011;11925;48.122;11.560;2023-02-15T08:19:02;13.98;;;9.68;;
23496;SDS011;11925;48.122;11.560;2023-02-15T08:21:32;14.88;;;10.27;;
23496;SDS011;11925;48.122;11.560;2023-02-15T08:24:02;13.35;;;9.75;;
23496;SDS011;11925;48.122;11.560;2023-02-15T08:26:32;14.32;;;9.88;;
23496;SDS011;11925;48.122;11.560;2023-02-15T08:29:02;14.10;;;10.45;;
23496;SDS011;11925;48.122;11.560;2023-02-15T08:31:31;13.60;;;9.70;;
23496;SDS011;11925;48.122;11.560;2023-02-15T08:33:59;14.57;;;10.13;;
23496;SDS011;11925;48.122;11.560;2023-02-15T08:36:28;14.48;;;10.32;;
23496;SDS011;11925;48.122;11.560;2023-02-15T08:38:58;12.85;;;9.50;;
23496;SDS011;11925;48.122;11.560;2023-02-15T08:41:29;15.13;;;10.55;;
23496;SDS011;11925;48.122;11.560;2023-02-15T08:43:59;16.50;;;10.15;;
23496;SDS011;11925;48.122;11.560;2023-02-15T08:46:30;17.08;;;11.30;;
23496;SDS011;11925;48.122;11.560;2023-02-15T08:51:28;14.95;;;9.98;;
23496;SDS011;11925;48.122;11.560;2023-02-15T08:53:59;16.65;;;10.38;;
23496;SDS011;11925;48.122;11.560;2023-02-15T08:56:30;16.57;;;10.03;;
23496;SDS011;11925;48.122;11.560;2023-02-15T08:59:00;14.73;;;10.67;;
23496;SDS011;11925;48.122;11.560;2023-02-15T09:01:31;16.75;;;10.85;;
23496;SDS011;11925;48.122;11.560;2023-02-15T09:04:01;15.35;;;10.52;;
23496;SDS011;11925;48.122;11.560;2023-02-15T09:06:31;15.75;;;10.73;;
23496;SDS011;11925;48.122;11.560;2023-02-15T09:09:00;20.40;;;12.52;;
23496;SDS011;11925;48.122;11.560;2023-02-15T09:11:30;16.98;;;11.13;;
23496;SDS011;11925;48.122;11.560;2023-02-15T09:16:33;18.92;;;11.20;;
23496;SDS011;11925;48.122;11.560;2023-02-15T09:19:03;20.98;;;11.63;;
23496;SDS011;11925;48.122;11.560;2023-02-15T09:21:32;17.13;;;11.13;;
23496;SDS011;11925;48.122;11.560;2023-02-15T09:24:03;17.00;;;11.52;;
23496;SDS011;11925;48.122;11.560;2023-02-15T09:26:36;15.52;;;10.95;;
23496;SDS011;11925;48.122;11.560;2023-02-15T09:29:07;17.42;;;11.05;;
23496;SDS011;11925;48.122;11.560;2023-02-15T09:31:39;18.75;;;11.43;;
23496;SDS011;11925;48.122;11.560;2023-02-15T09:34:11;20.08;;;11.00;;
23496;SDS011;11925;48.122;11.560;2023-02-15T09:36:40;19.98;;;11.52;;
23496;SDS011;11925;48.122;11.560;2023-02-15T09:39:09;16.75;;;11.48;;
23496;SDS011;11925;48.122;11.560;2023-02-15T09:41:48;16.95;;;11.68;;
23496;SDS011;11925;48.122;11.560;2023-02-15T09:44:33;18.67;;;12.15;;
23496;SDS011;11925;48.122;11.560;2023-02-15T09:47:19;20.13;;;11.45;;
23496;SDS011;11925;48.122;11.560;2023-02-15T09:50:02;17.98;;;11.25;;
23496;SDS011;11925;48.122;11.560;2023-02-15T09:52:43;16.90;;;11.13;;
23496;SDS011;11925;48.122;11.560;2023-02-15T09:58:17;16.02;;;11.38;;
23496;SDS011;11925;48.122;11.560;2023-02-15T10:00:54;16.98;;;10.70;;
23496;SDS011;11925;48.122;11.560;2023-02-15T10:03:36;16.67;;;10.93;;
23496;SDS011;11925;48.122;11.560;2023-02-15T10:06:16;16.25;;;11.00;;
23496;SDS011;11925;48.122;11.560;2023-02-15T10:09:04;18.00;;;11.40;;
23496;SDS011;11925;48.122;11.560;2023-02-15T10:11:56;17.10;;;12.45;;
23496;SDS011;11925;48.122;11.560;2023-02-15T10:17:51;19.48;;;11.65;;
23496;SDS011;11925;48.122;11.560;2023-02-15T10:23:12;15.77;;;11.10;;
23496;SDS011;11925;48.122;11.560;2023-02-15T10:25:51;17.02;;;11.82;;
23496;SDS011;11925;48.122;11.560;2023-02-15T10:28:30;20.45;;;11.60;;
23496;SDS011;11925;48.122;11.560;2023-02-15T10:31:08;17.90;;;11.10;;
23496;SDS011;11925;48.122;11.560;2023-02-15T10:33:41;17.33;;;11.55;;
23496;SDS011;11925;48.122;11.560;2023-02-15T10:36:15;16.08;;;11.27;;
23496;SDS011;11925;48.122;11.560;2023-02-15T10:38:56;17.17;;;10.90;;
23496;SDS011;11925;48.122;11.560;2023-02-15T10:41:32;19.15;;;11.52;;
23496;SDS011;11925;48.122;11.560;2023-02-15T10:44:13;17.77;;;11.60;;
23496;SDS011;11925;48.122;11.560;2023-02-15T10:46:55;19.52;;;12.10;;
23496;SDS011;11925;48.122;11.560;2023-02-15T10:49:48;16.95;;;11.50;;
23496;SDS011;11925;48.122;11.560;2023-02-15T10:52:46;17.58;;;11.90;;
23496;SDS011;11925;48.122;11.560;2023-02-15T10:55:27;17.05;;;11.60;;
23496;SDS011;11925;48.122;11.560;2023-02-15T10:58:04;16.63;;;11.23;;
23496;SDS011;11925;48.122;11.560;2023-02-15T11:00:39;19.20;;;11.25;;
23496;SDS011;11925;48.122;11.560;2023-02-15T11:06:04;17.70;;;12.98;;
23496;SDS011;11925;48.122;11.560;2023-02-15T11:08:39;21.58;;;14.32;;
23496;SDS011;11925;48.122;11.560;2023-02-15T11:11:11;21.25;;;13.50;;
23496;SDS011;11925;48.122;11.560;2023-02-15T11:13:44;19.80;;;13.00;;
23496;SDS011;11925;48.122;11.560;2023-02-15T11:16:18;20.38;;;13.95;;
23496;SDS011;11925;48.122;11.560;2023-02-15T11:18:53;20.27;;;14.30;;
23496;SDS011;11925;48.122;11.560;2023-02-15T11:21:26;22.65;;;14.07;;
23496;SDS011;11925;48.122;11.560;2023-02-15T11:24:00;20.08;;;12.93;;
23496;SDS011;11925;48.122;11.560;2023-02-15T11:26:29;21.60;;;13.60;;
23496;SDS011;11925;48.122;11.560;2023-02-15T11:29:01;22.25;;;14.73;;
23496;SDS011;11925;48.122;11.560;2023-02-15T11:31:41;23.88;;;15.20;;
23496;SDS011;11925;48.122;11.560;2023-02-15T11:34:13;19.73;;;13.40;;
23496;SDS011;11925;48.122;11.560;2023-02-15T11:36:49;19.02;;;12.75;;
23496;SDS011;11925;48.122;11.560;2023-02-15T11:39:21;22.35;;;15.52;;
23496;SDS011;11925;48.122;11.560;2023-02-15T11:41:53;20.17;;;14.45;;
23496;SDS011;11925;48.122;11.560;2023-02-15T11:46:54;22.92;;;13.93;;
23496;SDS011;11925;48.122;11.560;2023-02-15T11:49:23;21.45;;;14.52;;
23496;SDS011;11925;48.122;11.560;2023-02-15T11:51:54;22.35;;;14.25;;
23496;SDS011;11925;48.122;11.560;2023-02-15T11:54:26;21.63;;;13.65;;
23496;SDS011;11925;48.122;11.560;2023-02-15T11:56:59;21.55;;;13.77;;
23496;SDS011;11925;48.122;11.560;2023-02-15T11:59:34;21.27;;;14.25;;
23496;SDS011;11925;48.122;11.560;2023-02-15T12:04:43;22.52;;;13.57;;
23496;SDS011;11925;48.122;11.560;2023-02-15T12:07:18;21.05;;;14.02;;
23496;SDS011;11925;48.122;11.560;2023-02-15T12:09:55;23.23;;;14.70;;
23496;SDS011;11925;48.122;11.560;2023-02-15T12:12:31;24.73;;;14.75;;
23496;SDS011;11925;48.122;11.560;2023-02-15T12:15:01;21.30;;;15.60;;
23496;SDS011;11925;48.122;11.560;2023-02-15T12:17:32;25.70;;;15.63;;
23496;SDS011;11925;48.122;11.560;2023-02-15T12:20:02;27.00;;;15.15;;
23496;SDS011;11925;48.122;11.560;2023-02-15T12:22:34;24.27;;;15.20;;
23496;SDS011;11925;48.122;11.560;2023-02-15T12:25:19;24.33;;;14.88;;
23496;SDS011;11925;48.122;11.560;2023-02-15T12:27:50;22.67;;;15.38;;
23496;SDS011;11925;48.122;11.560;2023-02-15T12:30:19;24.85;;;15.73;;
23496;SDS011;11925;48.122;11.560;2023-02-15T12:32:51;23.58;;;15.95;;
23496;SDS011;11925;48.122;11.560;2023-02-15T12:35:28;27.75;;;15.95;;
23496;SDS011;11925;48.122;11.560;2023-02-15T12:38:00;26.40;;;15.70;;
23496;SDS011;11925;48.122;11.560;2023-02-15T12:40:33;25.08;;;16.80;;
23496;SDS011;11925;48.122;11.560;2023-02-15T12:43:02;22.50;;;15.18;;
23496;SDS011;11925;48.122;11.560;2023-02-15T12:45:35;21.95;;;14.93;;
23496;SDS011;11925;48.122;11.560;2023-02-15T12:48:09;21.42;;;15.32;;
23496;SDS011;11925;48.122;11.560;2023-02-15T12:50:42;24.30;;;15.77;;
23496;SDS011;11925;48.122;11.560;2023-02-15T12:53:13;21.10;;;15.38;;
23496;SDS011;11925;48.122;11.560;2023-02-15T12:55:54;21.88;;;14.50;;
23496;SDS011;11925;48.122;11.560;2023-02-15T12:58:23;23.52;;;15.65;;
23496;SDS011;11925;48.122;11.560;2023-02-15T13:01:03;24.25;;;15.02;;
23496;SDS011;11925;48.122;11.560;2023-02-15T13:03:39;23.85;;;15.35;;
23496;SDS011;11925;48.122;11.560;2023-02-15T13:06:22;22.17;;;14.43;;
23496;SDS011;11925;48.122;11.560;2023-02-15T13:08:50;22.13;;;14.93;;
23496;SDS011;11925;48.122;11.560;2023-02-15T13:11:26;22.23;;;15.10;;
23496;SDS011;11925;48.122;11.560;2023-02-15T13:14:01;25.42;;;15.88;;
23496;SDS011;11925;48.122;11.560;2023-02-15T13:16:31;23.83;;;16.00;;
23496;SDS011;11925;48.122;11.560;2023-02-15T13:19:02;21.02;;;14.95;;
23496;SDS011;11925;48.122;11.560;2023-02-15T13:21:35;19.90;;;14.45;;
23496;SDS011;11925;48.122;11.560;2023-02-15T13:24:11;21.67;;;14.45;;
23496;SDS011;11925;48.122;11.560;2023-02-15T13:26:46;23.45;;;14.88;;
23496;SDS011;11925;48.122;11.560;2023-02-15T13:29:17;22.58;;;14.38;;
23496;SDS011;11925;48.122;11.560;2023-02-15T13:31:50;21.27;;;14.15;;
23496;SDS011;11925;48.122;11.560;2023-02-15T13:34:20;20.90;;;13.88;;
23496;SDS011;11925;48.122;11.560;2023-02-15T13:36:54;18.77;;;13.10;;
23496;SDS011;11925;48.122;11.560;2023-02-15T13:39:31;21.73;;;14.88;;
23496;SDS011;11925;48.122;11.560;2023-02-15T13:42:11;21.05;;;13.20;;
23496;SDS011;11925;48.122;11.560;2023-02-15T13:47:50;18.75;;;13.45;;
23496;SDS011;11925;48.122;11.560;2023-02-15T13:50:37;24.65;;;13.35;;
23496;SDS011;11925;48.122;11.560;2023-02-15T13:53:27;17.60;;;12.43;;
23496;SDS011;11925;48.122;11.560;2023-02-15T13:56:17;22.95;;;13.98;;
23496;SDS011;11925;48.122;11.560;2023-02-15T13:59:01;17.77;;;13.13;;
23496;SDS011;11925;48.122;11.560;2023-02-15T14:01:43;17.95;;;12.77;;
23496;SDS011;11925;48.122;11.560;2023-02-15T14:04:17;20.27;;;12.63;;
23496;SDS011;11925;48.122;11.560;2023-02-15T14:10:10;18.13;;;12.32;;
23496;SDS011;11925;48.122;11.560;2023-02-15T14:12:57;19.33;;;12.45;;
23496;SDS011;11925;48.122;11.560;2023-02-15T14:15:40;19.65;;;13.07;;
23496;SDS011;11925;48.122;11.560;2023-02-15T14:18:16;19.45;;;12.45;;
23496;SDS011;11925;48.122;11.560;2023-02-15T14:20:55;19.23;;;12.07;;
23496;SDS011;11925;48.122;11.560;2023-02-15T14:23:35;20.40;;;12.23;;
23496;SDS011;11925;48.122;11.560;2023-02-15T14:26:12;19.00;;;12.07;;
23496;SDS011;11925;48.122;11.560;2023-02-15T14:28:48;20.13;;;13.25;;
23496;SDS011;11925;48.122;11.560;2023-02-15T14:31:26;23.27;;;12.80;;
23496;SDS011;11925;48.122;11.560;2023-02-15T14:34:00;18.63;;;12.95;;
23496;SDS011;11925;48.122;11.560;2023-02-15T14:36:30;21.40;;;12.90;;
23496;SDS011;11925;48.122;11.560;2023-02-15T14:39:01;19.80;;;12.57;;
23496;SDS011;11925;48.122;11.560;2023-02-15T14:42:02;16.23;;;11.90;;
23496;SDS011;11925;48.122;11.560;2023-02-15T14:44:36;18.20;;;12.77;;
23496;SDS011;11925;48.122;11.560;2023-02-15T14:47:10;20.20;;;12.30;;
23496;SDS011;11925;48.122;11.560;2023-02-15T14:49:44;18.85;;;12.63;;
23496;SDS011;11925;48.122;11.560;2023-02-15T14:52:13;21.80;;;13.10;;
23496;SDS011;11925;48.122;11.560;2023-02-15T14:54:54;18.30;;;11.57;;
23496;SDS011;11925;48.122;11.560;2023-02-15T14:57:27;21.40;;;13.27;;
23496;SDS011;11925;48.122;11.560;2023-02-15T15:03:00;21.25;;;12.23;;
23496;SDS011;11925;48.122;11.560;2023-02-15T15:05:31;16.95;;;11.38;;
23496;SDS011;11925;48.122;11.560;2023-02-15T15:08:02;18.85;;;12.27;;
23496;SDS011;11925;48.122;11.560;2023-02-15T15:10:34;18.20;;;12.02;;
23496;SDS011;11925;48.122;11.560;2023-02-15T15:16:28;20.95;;;13.30;;
23496;SDS011;11925;48.122;11.560;2023-02-15T15:18:59;19.17;;;12.18;;
23496;SDS011;11925;48.122;11.560;2023-02-15T15:33:13;17.38;;;11.57;;
23496;SDS011;11925;48.122;11.560;2023-02-15T15:36:26;18.60;;;12.63;;
23496;SDS011;11925;48.122;11.560;2023-02-15T15:39:26;31.75;;;17.67;;
23496;SDS011;11925;48.122;11.560;2023-02-15T15:42:12;25.10;;;15.13;;
23496;SDS011;11925;48.122;11.560;2023-02-15T15:45:00;31.08;;;15.07;;